sensor_id;sensor_type;location;lat;lon;timestamp;P1;durP1;ratioP1;P2;durP2;ratioP2
35977;SDS011;22056;0.000;0.000;2022-09-06T00:00:04;2.65;;;0.88;;
35977;SDS011;22056;0.000;0.000;2022-09-06T00:02:32;3.13;;;0.95;;
35977;SDS011;22056;0.000;0.000;2022-09-06T00:04:58;2.17;;;1.00;;
35977;SDS011;22056;0.000;0.000;2022-09-06T00:07:24;1.83;;;1.17;;
35977;SDS011;22056;0.000;0.000;2022-09-06T00:09:50;1.77;;;1.00;;
35977;SDS011;22056;0.000;0.000;2022-09-06T00:12:17;1.27;;;0.80;;
35977;SDS011;22056;0.000;0.000;2022-09-06T00:14:43;2.13;;;1.10;;
35977;SDS011;22056;0.000;0.000;2022-09-06T00:17:09;1.05;;;0.98;;
35977;SDS011;22056;0.000;0.000;2022-09-06T00:19:35;1.30;;;0.80;;
35977;SDS011;22056;0.000;0.000;2022-09-06T00:22:01;1.90;;;1.02;;
35977;SDS011;22056;0.000;0.000;2022-09-06T00:24:28;2.03;;;0.98;;
35977;SDS011;22056;0.000;0.000;2022-09-06T00:26:54;2.22;;;0.90;;
35977;SDS011;22056;0.000;0.000;2022-09-06T00:29:20;1.40;;;1.00;;
35977;SDS011;22056;0.000;0.000;2022-09-06T00:31:46;1.17;;;1.08;;
35977;SDS011;22056;0.000;0.000;2022-09-06T00:34:12;1.13;;;0.77;;
35977;SDS011;22056;0.000;0.000;2022-09-06T00:36:39;1.40;;;1.00;;
35977;SDS011;22056;0.000;0.000;2022-09-06T00:39:05;1.98;;;1.10;;
35977;SDS011;22056;0.000;0.000;2022-09-06T00:41:31;2.38;;;1.00;;
35977;SDS011;22056;0.000;0.000;2022-09-06T00:43:57;0.98;;;0.80;;
35977;SDS011;22056;0.000;0.000;2022-09-06T00:46:25;1.90;;;1.08;;
35977;SDS011;22056;0.000;0.000;2022-09-06T00:48:53;1.15;;;0.82;;
35977;SDS011;22056;0.000;0.000;2022-09-06T00:51:21;0.73;;;0.70;;
35977;SDS011;22056;0.000;0.000;2022-09-06T00:53:49;0.80;;;0.70;;
35977;SDS011;22056;0.000;0.000;2022-09-06T00:56:15;1.55;;;1.10;;
35977;SDS011;22056;0.000;0.000;2022-09-06T00:58:41;1.92;;;0.90;;
35977;SDS011;22056;0.000;0.000;2022-09-06T01:01:08;1.48;;;0.88;;
35977;SDS011;22056;0.000;0.000;2022-09-06T01:03:34;1.52;;;1.00;;
35977;SDS011;22056;0.000;0.000;2022-09-06T01:06:44;1.48;;;1.00;;
35977;SDS011;22056;0.000;0.000;2022-09-06T01:11:28;2.25;;;0.80;;
35977;SDS011;22056;0.000;0.000;2022-09-06T01:16:49;1.00;;;0.90;;
35977;SDS011;22056;0.000;0.000;2022-09-06T01:19:41;2.35;;;1.00;;
35977;SDS011;22056;0.000;0.000;2022-09-06T01:24:57;2.42;;;1.10;;
35977;SDS011;22056;0.000;0.000;2022-09-06T01:30:09;2.55;;;0.98;;
35977;SDS011;22056;0.000;0.000;2022-09-06T01:37:54;0.95;;;0.70;;
35977;SDS011;22056;0.000;0.000;2022-09-06T01:40:20;1.23;;;1.02;;
35977;SDS011;22056;0.000;0.000;2022-09-06T01:42:47;1.45;;;1.00;;
35977;SDS011;22056;0.000;0.000;2022-09-06T01:45:14;1.05;;;0.90;;
35977;SDS011;22056;0.000;0.000;2022-09-06T01:47:53;1.67;;;1.33;;
35977;SDS011;22056;0.000;0.000;2022-09-06T01:50:29;1.35;;;0.88;;
35977;SDS011;22056;0.000;0.000;2022-09-06T01:55:36;1.30;;;1.10;;
35977;SDS011;22056;0.000;0.000;2022-09-06T01:58:10;0.98;;;0.70;;
35977;SDS011;22056;0.000;0.000;2022-09-06T02:00:44;1.13;;;0.85;;
35977;SDS011;22056;0.000;0.000;2022-09-06T02:03:24;1.45;;;1.10;;
35977;SDS011;22056;0.000;0.000;2022-09-06T02:05:54;1.05;;;0.70;;
35977;SDS011;22056;0.000;0.000;2022-09-06T02:08:25;0.98;;;0.82;;
35977;SDS011;22056;0.000;0.000;2022-09-06T02:10:54;1.05;;;0.95;;
35977;SDS011;22056;0.000;0.000;2022-09-06T02:13:21;1.08;;;0.90;;
35977;SDS011;22056;0.000;0.000;2022-09-06T02:15:50;0.95;;;0.75;;
35977;SDS011;22056;0.000;0.000;2022-09-06T02:18:18;0.80;;;0.80;;
35977;SDS011;22056;0.000;0.000;2022-09-06T02:20:50;1.92;;;0.80;;
35977;SDS011;22056;0.000;0.000;2022-09-06T02:23:17;1.33;;;0.85;;
35977;SDS011;22056;0.000;0.000;2022-09-06T02:25:49;1.23;;;0.80;;
35977;SDS011;22056;0.000;0.000;2022-09-06T02:28:17;1.20;;;0.90;;
35977;SDS011;22056;0.000;0.000;2022-09-06T02:30:44;0.70;;;0.70;;
35977;SDS011;22056;0.000;0.000;2022-09-06T02:33:17;1.25;;;0.98;;
35977;SDS011;22056;0.000;0.000;2022-09-06T02:35:45;2.60;;;1.10;;
35977;SDS011;22056;0.000;0.000;2022-09-06T02:38:12;1.70;;;0.70;;
35977;SDS011;22056;0.000;0.000;2022-09-06T02:40:38;0.93;;;0.75;;
35977;SDS011;22056;0.000;0.000;2022-09-06T02:43:04;1.05;;;0.90;;
35977;SDS011;22056;0.000;0.000;2022-09-06T02:45:31;1.45;;;1.10;;
35977;SDS011;22056;0.000;0.000;2022-09-06T02:47:57;0.80;;;0.80;;
35977;SDS011;22056;0.000;0.000;2022-09-06T02:50:23;1.00;;;0.90;;
35977;SDS011;22056;0.000;0.000;2022-09-06T02:53:08;1.40;;;1.10;;
35977;SDS011;22056;0.000;0.000;2022-09-06T02:55:35;1.02;;;0.70;;
35977;SDS011;22056;0.000;0.000;2022-09-06T02:58:02;0.77;;;0.73;;
35977;SDS011;22056;0.000;0.000;2022-09-06T03:00:28;2.13;;;0.80;;
35977;SDS011;22056;0.000;0.000;2022-09-06T03:02:55;1.45;;;0.90;;
35977;SDS011;22056;0.000;0.000;2022-09-06T03:05:22;1.10;;;0.93;;
35977;SDS011;22056;0.000;0.000;2022-09-06T03:07:48;1.48;;;0.68;;
35977;SDS011;22056;0.000;0.000;2022-09-06T03:10:15;0.93;;;0.80;;
35977;SDS011;22056;0.000;0.000;2022-09-06T03:12:42;1.65;;;0.80;;
35977;SDS011;22056;0.000;0.000;2022-09-06T03:15:08;0.70;;;0.70;;
35977;SDS011;22056;0.000;0.000;2022-09-06T03:17:35;0.68;;;0.60;;
35977;SDS011;22056;0.000;0.000;2022-09-06T03:20:01;0.75;;;0.73;;
35977;SDS011;22056;0.000;0.000;2022-09-06T03:22:27;1.15;;;1.00;;
35977;SDS011;22056;0.000;0.000;2022-09-06T03:24:54;1.50;;;0.77;;
35977;SDS011;22056;0.000;0.000;2022-09-06T03:27:20;0.70;;;0.70;;
35977;SDS011;22056;0.000;0.000;2022-09-06T03:29:46;0.63;;;0.60;;
35977;SDS011;22056;0.000;0.000;2022-09-06T03:32:13;0.70;;;0.70;;
35977;SDS011;22056;0.000;0.000;2022-09-06T03:34:39;1.27;;;0.90;;
35977;SDS011;22056;0.000;0.000;2022-09-06T03:37:05;0.98;;;0.70;;
35977;SDS011;22056;0.000;0.000;2022-09-06T03:39:32;0.80;;;0.60;;
35977;SDS011;22056;0.000;0.000;2022-09-06T03:41:58;1.05;;;0.90;;
35977;SDS011;22056;0.000;0.000;2022-09-06T03:44:24;1.00;;;0.80;;
35977;SDS011;22056;0.000;0.000;2022-09-06T03:46:50;1.52;;;0.80;;
35977;SDS011;22056;0.000;0.000;2022-09-06T03:49:16;1.40;;;1.00;;
35977;SDS011;22056;0.000;0.000;2022-09-06T03:51:43;0.55;;;0.52;;
35977;SDS011;22056;0.000;0.000;2022-09-06T03:54:09;1.40;;;1.02;;
35977;SDS011;22056;0.000;0.000;2022-09-06T03:56:35;1.13;;;0.80;;
35977;SDS011;22056;0.000;0.000;2022-09-06T03:59:01;0.80;;;0.73;;
35977;SDS011;22056;0.000;0.000;2022-09-06T04:01:28;1.25;;;0.80;;
35977;SDS011;22056;0.000;0.000;2022-09-06T04:03:54;0.60;;;0.60;;
35977;SDS011;22056;0.000;0.000;2022-09-06T04:06:20;0.60;;;0.50;;
35977;SDS011;22056;0.000;0.000;2022-09-06T04:08:46;1.33;;;0.82;;
35977;SDS011;22056;0.000;0.000;2022-09-06T04:11:12;0.70;;;0.70;;
35977;SDS011;22056;0.000;0.000;2022-09-06T04:13:39;1.48;;;0.63;;
35977;SDS011;22056;0.000;0.000;2022-09-06T04:16:05;1.38;;;0.70;;
35977;SDS011;22056;0.000;0.000;2022-09-06T04:18:32;0.70;;;0.70;;
35977;SDS011;22056;0.000;0.000;2022-09-06T04:20:58;1.20;;;0.77;;
35977;SDS011;22056;0.000;0.000;2022-09-06T04:23:25;2.30;;;0.90;;
35977;SDS011;22056;0.000;0.000;2022-09-06T04:25:52;0.93;;;0.75;;
35977;SDS011;22056;0.000;0.000;2022-09-06T04:28:18;1.48;;;0.60;;
35977;SDS011;22056;0.000;0.000;2022-09-06T04:30:50;1.63;;;0.90;;
35977;SDS011;22056;0.000;0.000;2022-09-06T04:33:17;2.80;;;0.90;;
35977;SDS011;22056;0.000;0.000;2022-09-06T04:35:47;1.02;;;0.75;;
35977;SDS011;22056;0.000;0.000;2022-09-06T04:38:13;1.17;;;0.80;;
35977;SDS011;22056;0.000;0.000;2022-09-06T04:40:40;2.03;;;0.90;;
35977;SDS011;22056;0.000;0.000;2022-09-06T04:43:06;0.95;;;0.60;;
35977;SDS011;22056;0.000;0.000;2022-09-06T04:45:32;1.48;;;1.00;;
35977;SDS011;22056;0.000;0.000;2022-09-06T04:47:58;1.23;;;1.08;;
35977;SDS011;22056;0.000;0.000;2022-09-06T04:50:24;2.33;;;0.90;;
35977;SDS011;22056;0.000;0.000;2022-09-06T04:52:51;1.08;;;0.75;;
35977;SDS011;22056;0.000;0.000;2022-09-06T04:55:17;2.95;;;0.80;;
35977;SDS011;22056;0.000;0.000;2022-09-06T04:57:43;3.58;;;0.88;;
35977;SDS011;22056;0.000;0.000;2022-09-06T05:00:10;1.58;;;0.80;;
35977;SDS011;22056;0.000;0.000;2022-09-06T05:02:36;3.92;;;1.08;;
35977;SDS011;22056;0.000;0.000;2022-09-06T05:05:03;1.55;;;0.77;;
35977;SDS011;22056;0.000;0.000;2022-09-06T05:07:29;1.73;;;0.90;;
35977;SDS011;22056;0.000;0.000;2022-09-06T05:09:56;2.45;;;0.80;;
35977;SDS011;22056;0.000;0.000;2022-09-06T05:12:22;1.83;;;0.90;;
35977;SDS011;22056;0.000;0.000;2022-09-06T05:14:48;2.60;;;1.20;;
35977;SDS011;22056;0.000;0.000;2022-09-06T05:17:15;2.08;;;0.85;;
35977;SDS011;22056;0.000;0.000;2022-09-06T05:19:41;1.60;;;0.82;;
35977;SDS011;22056;0.000;0.000;2022-09-06T05:22:09;1.98;;;0.90;;
35977;SDS011;22056;0.000;0.000;2022-09-06T05:24:35;2.58;;;0.70;;
35977;SDS011;22056;0.000;0.000;2022-09-06T05:27:01;2.97;;;1.02;;
35977;SDS011;22056;0.000;0.000;2022-09-06T05:29:29;2.75;;;0.93;;
35977;SDS011;22056;0.000;0.000;2022-09-06T05:31:56;1.70;;;0.80;;
35977;SDS011;22056;0.000;0.000;2022-09-06T05:34:22;4.45;;;0.95;;
35977;SDS011;22056;0.000;0.000;2022-09-06T05:36:48;4.35;;;0.80;;
35977;SDS011;22056;0.000;0.000;2022-09-06T05:39:14;3.00;;;0.70;;
35977;SDS011;22056;0.000;0.000;2022-09-06T05:41:43;3.00;;;1.05;;
35977;SDS011;22056;0.000;0.000;2022-09-06T05:44:09;1.95;;;0.60;;
35977;SDS011;22056;0.000;0.000;2022-09-06T05:46:45;1.70;;;0.70;;
35977;SDS011;22056;0.000;0.000;2022-09-06T05:49:11;4.75;;;1.10;;
35977;SDS011;22056;0.000;0.000;2022-09-06T05:51:38;2.13;;;0.90;;
35977;SDS011;22056;0.000;0.000;2022-09-06T05:54:05;4.00;;;1.20;;
35977;SDS011;22056;0.000;0.000;2022-09-06T05:56:32;2.78;;;1.20;;
35977;SDS011;22056;0.000;0.000;2022-09-06T05:58:58;2.15;;;1.13;;
35977;SDS011;22056;0.000;0.000;2022-09-06T06:01:25;5.10;;;1.20;;
35977;SDS011;22056;0.000;0.000;2022-09-06T06:03:53;2.40;;;1.35;;
35977;SDS011;22056;0.000;0.000;2022-09-06T06:06:21;4.15;;;1.15;;
35977;SDS011;22056;0.000;0.000;2022-09-06T06:08:48;4.47;;;1.33;;
35977;SDS011;22056;0.000;0.000;2022-09-06T06:11:15;3.17;;;0.88;;
35977;SDS011;22056;0.000;0.000;2022-09-06T06:13:41;2.53;;;0.90;;
35977;SDS011;22056;0.000;0.000;2022-09-06T06:16:08;6.07;;;1.20;;
35977;SDS011;22056;0.000;0.000;2022-09-06T06:18:35;3.33;;;1.00;;
35977;SDS011;22056;0.000;0.000;2022-09-06T06:21:08;3.72;;;1.15;;
35977;SDS011;22056;0.000;0.000;2022-09-06T06:23:34;3.25;;;1.15;;
35977;SDS011;22056;0.000;0.000;2022-09-06T06:26:00;2.05;;;1.00;;
35977;SDS011;22056;0.000;0.000;2022-09-06T06:28:27;2.83;;;1.00;;
35977;SDS011;22056;0.000;0.000;2022-09-06T06:30:53;3.38;;;0.98;;
35977;SDS011;22056;0.000;0.000;2022-09-06T06:33:19;3.70;;;1.02;;
35977;SDS011;22056;0.000;0.000;2022-09-06T06:35:55;5.07;;;1.35;;
35977;SDS011;22056;0.000;0.000;2022-09-06T06:38:21;3.45;;;1.17;;
35977;SDS011;22056;0.000;0.000;2022-09-06T06:40:48;3.15;;;1.15;;
35977;SDS011;22056;0.000;0.000;2022-09-06T06:43:14;3.70;;;1.58;;
35977;SDS011;22056;0.000;0.000;2022-09-06T06:45:40;6.60;;;1.15;;
35977;SDS011;22056;0.000;0.000;2022-09-06T06:48:06;3.33;;;1.60;;
35977;SDS011;22056;0.000;0.000;2022-09-06T06:50:32;5.15;;;1.30;;
35977;SDS011;22056;0.000;0.000;2022-09-06T06:52:58;3.58;;;1.17;;
35977;SDS011;22056;0.000;0.000;2022-09-06T06:55:25;4.05;;;1.40;;
35977;SDS011;22056;0.000;0.000;2022-09-06T06:57:51;4.28;;;1.40;;
35977;SDS011;22056;0.000;0.000;2022-09-06T07:00:17;2.42;;;1.20;;
35977;SDS011;22056;0.000;0.000;2022-09-06T07:02:44;5.38;;;1.17;;
35977;SDS011;22056;0.000;0.000;2022-09-06T07:05:10;3.75;;;1.10;;
35977;SDS011;22056;0.000;0.000;2022-09-06T07:07:36;1.80;;;1.00;;
35977;SDS011;22056;0.000;0.000;2022-09-06T07:10:02;4.28;;;1.00;;
35977;SDS011;22056;0.000;0.000;2022-09-06T07:12:29;2.50;;;1.17;;
35977;SDS011;22056;0.000;0.000;2022-09-06T07:14:55;8.40;;;1.33;;
35977;SDS011;22056;0.000;0.000;2022-09-06T07:17:21;3.17;;;1.23;;
35977;SDS011;22056;0.000;0.000;2022-09-06T07:19:47;2.13;;;1.13;;
35977;SDS011;22056;0.000;0.000;2022-09-06T07:22:13;4.10;;;1.10;;
35977;SDS011;22056;0.000;0.000;2022-09-06T07:24:40;2.50;;;1.45;;
35977;SDS011;22056;0.000;0.000;2022-09-06T07:27:06;3.00;;;0.90;;
35977;SDS011;22056;0.000;0.000;2022-09-06T07:29:32;3.60;;;1.38;;
35977;SDS011;22056;0.000;0.000;2022-09-06T07:31:58;2.78;;;1.17;;
35977;SDS011;22056;0.000;0.000;2022-09-06T07:34:25;2.40;;;1.25;;
35977;SDS011;22056;0.000;0.000;2022-09-06T07:36:52;2.80;;;0.93;;
35977;SDS011;22056;0.000;0.000;2022-09-06T07:39:18;5.50;;;1.63;;
35977;SDS011;22056;0.000;0.000;2022-09-06T07:41:44;1.85;;;0.82;;
35977;SDS011;22056;0.000;0.000;2022-09-06T07:44:11;2.95;;;1.20;;
35977;SDS011;22056;0.000;0.000;2022-09-06T07:46:37;2.80;;;1.20;;
35977;SDS011;22056;0.000;0.000;2022-09-06T07:49:03;2.85;;;1.00;;
35977;SDS011;22056;0.000;0.000;2022-09-06T07:51:30;4.45;;;1.10;;
35977;SDS011;22056;0.000;0.000;2022-09-06T07:53:56;2.03;;;1.00;;
35977;SDS011;22056;0.000;0.000;2022-09-06T07:56:23;2.88;;;1.13;;
35977;SDS011;22056;0.000;0.000;2022-09-06T07:58:50;2.20;;;1.00;;
35977;SDS011;22056;0.000;0.000;2022-09-06T08:01:32;5.03;;;1.17;;
35977;SDS011;22056;0.000;0.000;2022-09-06T08:06:26;2.92;;;1.15;;
35977;SDS011;22056;0.000;0.000;2022-09-06T08:08:53;3.85;;;1.10;;
35977;SDS011;22056;0.000;0.000;2022-09-06T08:11:20;2.25;;;1.10;;
35977;SDS011;22056;0.000;0.000;2022-09-06T08:13:50;3.00;;;1.10;;
35977;SDS011;22056;0.000;0.000;2022-09-06T08:16:19;3.72;;;1.25;;
35977;SDS011;22056;0.000;0.000;2022-09-06T08:18:49;3.25;;;1.02;;
35977;SDS011;22056;0.000;0.000;2022-09-06T08:21:16;2.28;;;0.80;;
35977;SDS011;22056;0.000;0.000;2022-09-06T08:23:49;2.65;;;1.00;;
35977;SDS011;22056;0.000;0.000;2022-09-06T08:26:15;4.00;;;1.15;;
35977;SDS011;22056;0.000;0.000;2022-09-06T08:28:42;4.15;;;1.27;;
35977;SDS011;22056;0.000;0.000;2022-09-06T08:31:09;3.72;;;1.08;;
35977;SDS011;22056;0.000;0.000;2022-09-06T08:33:36;3.35;;;1.02;;
35977;SDS011;22056;0.000;0.000;2022-09-06T08:36:03;2.38;;;0.80;;
35977;SDS011;22056;0.000;0.000;2022-09-06T08:38:30;4.63;;;1.10;;
35977;SDS011;22056;0.000;0.000;2022-09-06T08:41:09;3.80;;;1.35;;
35977;SDS011;22056;0.000;0.000;2022-09-06T08:43:36;5.50;;;1.20;;
35977;SDS011;22056;0.000;0.000;2022-09-06T08:46:03;4.30;;;1.33;;
35977;SDS011;22056;0.000;0.000;2022-09-06T08:48:31;4.65;;;1.35;;
35977;SDS011;22056;0.000;0.000;2022-09-06T08:51:09;3.75;;;1.40;;
35977;SDS011;22056;0.000;0.000;2022-09-06T08:53:43;4.32;;;1.08;;
35977;SDS011;22056;0.000;0.000;2022-09-06T09:03:38;3.92;;;1.00;;
35977;SDS011;22056;0.000;0.000;2022-09-06T09:06:05;5.80;;;1.20;;
35977;SDS011;22056;0.000;0.000;2022-09-06T09:08:36;2.72;;;1.13;;
35977;SDS011;22056;0.000;0.000;2022-09-06T09:11:07;3.30;;;1.10;;
35977;SDS011;22056;0.000;0.000;2022-09-06T09:16:07;2.60;;;0.80;;
35977;SDS011;22056;0.000;0.000;2022-09-06T09:18:35;1.92;;;1.02;;
35977;SDS011;22056;0.000;0.000;2022-09-06T09:21:05;2.97;;;1.13;;
35977;SDS011;22056;0.000;0.000;2022-09-06T09:23:31;3.42;;;1.25;;
35977;SDS011;22056;0.000;0.000;2022-09-06T09:25:59;3.90;;;1.23;;
35977;SDS011;22056;0.000;0.000;2022-09-06T09:28:27;2.85;;;1.10;;
35977;SDS011;22056;0.000;0.000;2022-09-06T09:30:54;3.80;;;1.30;;
35977;SDS011;22056;0.000;0.000;2022-09-06T09:33:25;4.57;;;1.25;;
35977;SDS011;22056;0.000;0.000;2022-09-06T09:35:51;3.80;;;1.10;;
35977;SDS011;22056;0.000;0.000;2022-09-06T09:38:32;4.00;;;1.27;;
35977;SDS011;22056;0.000;0.000;2022-09-06T09:41:03;4.60;;;1.42;;
35977;SDS011;22056;0.000;0.000;2022-09-06T09:43:34;4.45;;;1.45;;
35977;SDS011;22056;0.000;0.000;2022-09-06T09:49:06;4.10;;;1.58;;
35977;SDS011;22056;0.000;0.000;2022-09-06T09:51:35;5.35;;;1.30;;
35977;SDS011;22056;0.000;0.000;2022-09-06T09:54:03;4.47;;;1.40;;
35977;SDS011;22056;0.000;0.000;2022-09-06T09:58:56;5.43;;;1.20;;
35977;SDS011;22056;0.000;0.000;2022-09-06T10:01:31;5.78;;;1.30;;
35977;SDS011;22056;0.000;0.000;2022-09-06T10:04:05;6.10;;;1.23;;
35977;SDS011;22056;0.000;0.000;2022-09-06T10:06:32;6.20;;;1.30;;
35977;SDS011;22056;0.000;0.000;2022-09-06T10:09:10;4.13;;;1.33;;
35977;SDS011;22056;0.000;0.000;2022-09-06T10:11:39;6.65;;;1.38;;
35977;SDS011;22056;0.000;0.000;2022-09-06T10:14:09;3.85;;;1.45;;
35977;SDS011;22056;0.000;0.000;2022-09-06T10:16:42;3.33;;;1.38;;
35977;SDS011;22056;0.000;0.000;2022-09-06T10:19:34;3.50;;;1.00;;
35977;SDS011;22056;0.000;0.000;2022-09-06T10:22:00;6.45;;;1.52;;
35977;SDS011;22056;0.000;0.000;2022-09-06T10:25:20;4.07;;;1.30;;
35977;SDS011;22056;0.000;0.000;2022-09-06T10:27:16;4.13;;;1.27;;
35977;SDS011;22056;0.000;0.000;2022-09-06T10:32:26;3.38;;;1.23;;
35977;SDS011;22056;0.000;0.000;2022-09-06T10:35:30;3.38;;;1.17;;
35977;SDS011;22056;0.000;0.000;2022-09-06T10:42:46;5.50;;;1.42;;
35977;SDS011;22056;0.000;0.000;2022-09-06T10:48:07;5.07;;;1.33;;
35977;SDS011;22056;0.000;0.000;2022-09-06T10:50:39;5.70;;;1.35;;
35977;SDS011;22056;0.000;0.000;2022-09-06T10:55:49;3.50;;;1.63;;
35977;SDS011;22056;0.000;0.000;2022-09-06T10:58:21;4.97;;;1.30;;
35977;SDS011;22056;0.000;0.000;2022-09-06T11:00:49;2.65;;;1.20;;
35977;SDS011;22056;0.000;0.000;2022-09-06T11:03:28;4.65;;;1.50;;
35977;SDS011;22056;0.000;0.000;2022-09-06T11:06:06;5.38;;;1.30;;
35977;SDS011;22056;0.000;0.000;2022-09-06T11:08:42;4.55;;;1.40;;
35977;SDS011;22056;0.000;0.000;2022-09-06T11:11:10;6.88;;;1.48;;
35977;SDS011;22056;0.000;0.000;2022-09-06T11:13:40;3.93;;;1.33;;
35977;SDS011;22056;0.000;0.000;2022-09-06T11:18:36;4.18;;;1.20;;
35977;SDS011;22056;0.000;0.000;2022-09-06T11:24:00;6.20;;;1.65;;
35977;SDS011;22056;0.000;0.000;2022-09-06T11:26:33;5.25;;;1.40;;
35977;SDS011;22056;0.000;0.000;2022-09-06T11:29:22;4.55;;;1.30;;
35977;SDS011;22056;0.000;0.000;2022-09-06T11:31:54;6.55;;;1.75;;
35977;SDS011;22056;0.000;0.000;2022-09-06T11:34:22;8.10;;;1.73;;
35977;SDS011;22056;0.000;0.000;2022-09-06T11:36:59;11.50;;;2.90;;
35977;SDS011;22056;0.000;0.000;2022-09-06T11:41:55;8.32;;;1.73;;
35977;SDS011;22056;0.000;0.000;2022-09-06T11:47:06;4.78;;;1.38;;
35977;SDS011;22056;0.000;0.000;2022-09-06T11:49:33;7.70;;;1.92;;
35977;SDS011;22056;0.000;0.000;2022-09-06T11:52:01;8.43;;;1.92;;
35977;SDS011;22056;0.000;0.000;2022-09-06T11:54:31;6.22;;;1.60;;
35977;SDS011;22056;0.000;0.000;2022-09-06T11:57:11;8.00;;;2.00;;
35977;SDS011;22056;0.000;0.000;2022-09-06T12:02:28;12.55;;;2.05;;
35977;SDS011;22056;0.000;0.000;2022-09-06T12:07:24;11.25;;;1.83;;
35977;SDS011;22056;0.000;0.000;2022-09-06T12:09:50;8.55;;;2.15;;
35977;SDS011;22056;0.000;0.000;2022-09-06T12:15:41;7.72;;;1.75;;
35977;SDS011;22056;0.000;0.000;2022-09-06T12:18:09;6.20;;;1.92;;
35977;SDS011;22056;0.000;0.000;2022-09-06T12:26:05;10.90;;;1.65;;
35977;SDS011;22056;0.000;0.000;2022-09-06T12:28:33;8.20;;;1.95;;
35977;SDS011;22056;0.000;0.000;2022-09-06T12:31:00;9.90;;;2.00;;
35977;SDS011;22056;0.000;0.000;2022-09-06T12:33:44;12.13;;;2.00;;
35977;SDS011;22056;0.000;0.000;2022-09-06T12:36:19;11.52;;;2.33;;
35977;SDS011;22056;0.000;0.000;2022-09-06T12:39:03;9.13;;;1.83;;
35977;SDS011;22056;0.000;0.000;2022-09-06T12:41:31;7.43;;;1.98;;
35977;SDS011;22056;0.000;0.000;2022-09-06T12:44:03;9.85;;;1.80;;
35977;SDS011;22056;0.000;0.000;2022-09-06T12:46:30;13.70;;;2.25;;
35977;SDS011;22056;0.000;0.000;2022-09-06T12:51:26;9.55;;;2.17;;
35977;SDS011;22056;0.000;0.000;2022-09-06T12:53:53;18.05;;;2.90;;
35977;SDS011;22056;0.000;0.000;2022-09-06T12:56:21;18.95;;;2.70;;
35977;SDS011;22056;0.000;0.000;2022-09-06T12:58:47;17.77;;;2.83;;
35977;SDS011;22056;0.000;0.000;2022-09-06T13:03:44;9.88;;;2.08;;
35977;SDS011;22056;0.000;0.000;2022-09-06T13:06:16;14.85;;;2.25;;
35977;SDS011;22056;0.000;0.000;2022-09-06T13:08:54;12.70;;;2.08;;
35977;SDS011;22056;0.000;0.000;2022-09-06T13:11:31;7.25;;;2.10;;
35977;SDS011;22056;0.000;0.000;2022-09-06T13:13:58;9.57;;;2.03;;
35977;SDS011;22056;0.000;0.000;2022-09-06T13:16:26;9.48;;;2.13;;
35977;SDS011;22056;0.000;0.000;2022-09-06T13:18:53;9.20;;;1.77;;
35977;SDS011;22056;0.000;0.000;2022-09-06T13:21:26;8.93;;;2.25;;
35977;SDS011;22056;0.000;0.000;2022-09-06T13:23:53;7.05;;;1.80;;
35977;SDS011;22056;0.000;0.000;2022-09-06T13:26:32;6.50;;;1.75;;
35977;SDS011;22056;0.000;0.000;2022-09-06T13:31:58;5.15;;;1.67;;
35977;SDS011;22056;0.000;0.000;2022-09-06T13:34:27;6.28;;;1.60;;
35977;SDS011;22056;0.000;0.000;2022-09-06T13:36:55;7.50;;;1.50;;
35977;SDS011;22056;0.000;0.000;2022-09-06T13:39:35;9.07;;;1.80;;
35977;SDS011;22056;0.000;0.000;2022-09-06T13:42:05;4.68;;;1.65;;
35977;SDS011;22056;0.000;0.000;2022-09-06T13:44:33;5.20;;;1.27;;
35977;SDS011;22056;0.000;0.000;2022-09-06T13:46:59;6.57;;;1.55;;
35977;SDS011;22056;0.000;0.000;2022-09-06T13:49:26;7.70;;;2.10;;
35977;SDS011;22056;0.000;0.000;2022-09-06T13:51:53;11.48;;;2.13;;
35977;SDS011;22056;0.000;0.000;2022-09-06T13:54:20;8.35;;;2.03;;
35977;SDS011;22056;0.000;0.000;2022-09-06T13:56:47;8.70;;;1.90;;
35977;SDS011;22056;0.000;0.000;2022-09-06T13:59:14;8.82;;;1.90;;
35977;SDS011;22056;0.000;0.000;2022-09-06T14:01:41;7.30;;;1.60;;
35977;SDS011;22056;0.000;0.000;2022-09-06T14:04:08;7.65;;;1.60;;
35977;SDS011;22056;0.000;0.000;2022-09-06T14:06:36;12.15;;;2.03;;
35977;SDS011;22056;0.000;0.000;2022-09-06T14:09:02;6.82;;;1.55;;
35977;SDS011;22056;0.000;0.000;2022-09-06T14:11:28;5.18;;;1.65;;
35977;SDS011;22056;0.000;0.000;2022-09-06T14:13:55;5.38;;;1.60;;
35977;SDS011;22056;0.000;0.000;2022-09-06T14:16:21;6.47;;;1.48;;
35977;SDS011;22056;0.000;0.000;2022-09-06T14:18:47;10.57;;;1.80;;
35977;SDS011;22056;0.000;0.000;2022-09-06T14:21:13;7.90;;;1.55;;
35977;SDS011;22056;0.000;0.000;2022-09-06T14:23:40;9.13;;;1.60;;
35977;SDS011;22056;0.000;0.000;2022-09-06T14:26:06;4.60;;;1.20;;
35977;SDS011;22056;0.000;0.000;2022-09-06T14:28:33;4.43;;;1.42;;
35977;SDS011;22056;0.000;0.000;2022-09-06T14:31:09;3.92;;;1.40;;
35977;SDS011;22056;0.000;0.000;2022-09-06T14:33:36;6.82;;;1.50;;
35977;SDS011;22056;0.000;0.000;2022-09-06T14:36:06;5.38;;;1.50;;
35977;SDS011;22056;0.000;0.000;2022-09-06T14:38:34;4.82;;;1.48;;
35977;SDS011;22056;0.000;0.000;2022-09-06T14:41:01;5.05;;;1.38;;
35977;SDS011;22056;0.000;0.000;2022-09-06T14:43:28;12.25;;;1.88;;
35977;SDS011;22056;0.000;0.000;2022-09-06T14:45:54;6.55;;;1.38;;
35977;SDS011;22056;0.000;0.000;2022-09-06T14:48:22;5.72;;;1.58;;
35977;SDS011;22056;0.000;0.000;2022-09-06T14:50:54;4.13;;;1.35;;
35977;SDS011;22056;0.000;0.000;2022-09-06T14:53:20;8.32;;;1.23;;
35977;SDS011;22056;0.000;0.000;2022-09-06T14:55:46;4.55;;;1.50;;
35977;SDS011;22056;0.000;0.000;2022-09-06T14:58:12;8.07;;;1.73;;
35977;SDS011;22056;0.000;0.000;2022-09-06T15:00:39;7.00;;;1.65;;
35977;SDS011;22056;0.000;0.000;2022-09-06T15:03:06;8.00;;;1.80;;
35977;SDS011;22056;0.000;0.000;2022-09-06T15:05:32;6.32;;;1.45;;
35977;SDS011;22056;0.000;0.000;2022-09-06T15:07:58;3.47;;;1.30;;
35977;SDS011;22056;0.000;0.000;2022-09-06T15:10:25;4.32;;;1.25;;
35977;SDS011;22056;0.000;0.000;2022-09-06T15:12:51;4.25;;;1.20;;
35977;SDS011;22056;0.000;0.000;2022-09-06T15:15:18;5.25;;;1.40;;
35977;SDS011;22056;0.000;0.000;2022-09-06T15:17:44;9.45;;;1.55;;
35977;SDS011;22056;0.000;0.000;2022-09-06T15:20:10;6.80;;;1.38;;
35977;SDS011;22056;0.000;0.000;2022-09-06T15:22:36;6.25;;;1.85;;
35977;SDS011;22056;0.000;0.000;2022-09-06T15:25:03;4.00;;;1.25;;
35977;SDS011;22056;0.000;0.000;2022-09-06T15:27:30;4.90;;;1.38;;
35977;SDS011;22056;0.000;0.000;2022-09-06T15:29:56;10.75;;;1.60;;
35977;SDS011;22056;0.000;0.000;2022-09-06T15:32:23;4.72;;;1.75;;
35977;SDS011;22056;0.000;0.000;2022-09-06T15:34:49;3.85;;;1.10;;
35977;SDS011;22056;0.000;0.000;2022-09-06T15:37:15;2.42;;;1.17;;
35977;SDS011;22056;0.000;0.000;2022-09-06T15:39:41;2.75;;;1.20;;
35977;SDS011;22056;0.000;0.000;2022-09-06T15:42:07;4.40;;;0.90;;
35977;SDS011;22056;0.000;0.000;2022-09-06T15:44:34;6.25;;;1.30;;
35977;SDS011;22056;0.000;0.000;2022-09-06T15:47:00;2.75;;;0.93;;
35977;SDS011;22056;0.000;0.000;2022-09-06T15:49:27;3.40;;;0.90;;
35977;SDS011;22056;0.000;0.000;2022-09-06T15:51:56;3.88;;;1.00;;
35977;SDS011;22056;0.000;0.000;2022-09-06T15:54:22;7.05;;;1.15;;
35977;SDS011;22056;0.000;0.000;2022-09-06T15:57:07;6.03;;;1.10;;
35977;SDS011;22056;0.000;0.000;2022-09-06T15:59:33;6.15;;;1.25;;
35977;SDS011;22056;0.000;0.000;2022-09-06T16:01:59;6.10;;;1.52;;
35977;SDS011;22056;0.000;0.000;2022-09-06T16:04:26;4.35;;;1.55;;
35977;SDS011;22056;0.000;0.000;2022-09-06T16:06:52;6.10;;;1.45;;
35977;SDS011;22056;0.000;0.000;2022-09-06T16:09:19;2.83;;;1.10;;
35977;SDS011;22056;0.000;0.000;2022-09-06T16:11:45;4.78;;;1.20;;
35977;SDS011;22056;0.000;0.000;2022-09-06T16:14:12;2.88;;;1.20;;
35977;SDS011;22056;0.000;0.000;2022-09-06T16:16:38;4.93;;;1.10;;
35977;SDS011;22056;0.000;0.000;2022-09-06T16:19:05;4.05;;;1.20;;
35977;SDS011;22056;0.000;0.000;2022-09-06T16:21:32;4.18;;;1.30;;
35977;SDS011;22056;0.000;0.000;2022-09-06T16:24:00;5.60;;;1.25;;
35977;SDS011;22056;0.000;0.000;2022-09-06T16:26:27;3.60;;;1.00;;
35977;SDS011;22056;0.000;0.000;2022-09-06T16:28:56;3.53;;;1.10;;